createdAt,value
2019-05-06T00:00:07.938Z,3.50
2019-05-06T00:02:36.184Z,3.40
2019-05-06T00:05:05.480Z,3.70
2019-05-06T00:07:34.065Z,4.43
2019-05-06T00:10:02.415Z,3.20
2019-05-06T00:12:30.703Z,3.40
2019-05-06T00:14:58.926Z,3.60
2019-05-06T00:17:27.239Z,3.37
2019-05-06T00:19:57.095Z,3.60
2019-05-06T00:22:25.513Z,3.30
2019-05-06T00:24:55.368Z,3.23
2019-05-06T00:27:31.061Z,3.63
2019-05-06T00:29:59.281Z,2.93
2019-05-06T00:32:27.532Z,3.60
2019-05-06T00:34:55.829Z,3.53
2019-05-06T00:37:24.194Z,3.00
2019-05-06T00:39:57.026Z,3.33
2019-05-06T00:42:34.638Z,3.80
2019-05-06T00:45:04.445Z,3.50
2019-05-06T00:47:34.003Z,3.77
2019-05-06T00:50:04.226Z,3.50
2019-05-06T00:52:33.982Z,3.23
2019-05-06T00:55:04.097Z,3.73
2019-05-06T00:57:44.381Z,3.70
2019-05-06T01:00:17.510Z,3.83
2019-05-06T01:02:45.841Z,3.57
2019-05-06T01:05:14.529Z,4.13
2019-05-06T01:07:44.013Z,3.73
2019-05-06T01:10:14.259Z,3.53
2019-05-06T01:12:44.587Z,3.80
2019-05-06T01:15:14.540Z,3.60
2019-05-06T01:17:44.350Z,3.90
2019-05-06T01:20:13.901Z,3.87
2019-05-06T01:22:43.658Z,3.50
2019-05-06T01:25:14.116Z,3.60
2019-05-06T01:27:44.405Z,4.07
2019-05-06T01:30:13.731Z,3.80
2019-05-06T01:32:43.597Z,3.93
2019-05-06T01:35:13.995Z,4.00
2019-05-06T01:37:44.119Z,3.80
2019-05-06T01:40:23.917Z,3.90
2019-05-06T01:42:54.126Z,4.03
2019-05-06T01:45:26.386Z,3.70
2019-05-06T01:47:55.103Z,3.70
2019-05-06T01:50:23.623Z,3.67
2019-05-06T01:52:53.902Z,3.93
2019-05-06T01:55:23.754Z,4.40
2019-05-06T01:57:51.640Z,4.10
2019-05-06T02:00:20.033Z,3.90
2019-05-06T02:02:48.268Z,4.20
2019-05-06T02:05:16.575Z,4.60
2019-05-06T02:07:44.791Z,4.03
2019-05-06T02:10:14.199Z,4.60
2019-05-06T02:12:44.324Z,4.67
2019-05-06T02:15:14.464Z,4.33
2019-05-06T02:17:44.106Z,4.37
2019-05-06T02:20:13.860Z,4.33
2019-05-06T02:22:46.724Z,5.17
2019-05-06T02:25:16.657Z,4.13
2019-05-06T02:27:44.917Z,4.40
2019-05-06T02:30:15.380Z,4.17
2019-05-06T02:32:48.145Z,4.30
2019-05-06T02:35:20.834Z,4.20
2019-05-06T02:37:49.159Z,4.47
2019-05-06T02:40:18.650Z,4.13
2019-05-06T02:42:46.954Z,4.20
2019-05-06T02:45:15.281Z,4.17
2019-05-06T02:47:45.210Z,4.30
2019-05-06T02:50:17.609Z,4.73
2019-05-06T02:52:45.901Z,4.13
2019-05-06T02:55:14.229Z,4.13
2019-05-06T02:57:43.877Z,4.20
2019-05-06T03:00:13.899Z,4.10
2019-05-06T03:02:46.835Z,4.00
2019-05-06T03:05:13.063Z,4.57
2019-05-06T03:07:43.523Z,4.80
2019-05-06T03:10:15.155Z,4.50
2019-05-06T03:12:43.436Z,4.07
2019-05-06T03:15:16.223Z,5.40
2019-05-06T03:17:43.512Z,4.80
2019-05-06T03:20:13.316Z,4.73
2019-05-06T03:22:57.955Z,4.17
2019-05-06T03:25:27.894Z,4.17
2019-05-06T03:27:56.148Z,5.13
2019-05-06T03:30:25.822Z,4.27
2019-05-06T03:33:31.947Z,4.60
2019-05-06T03:35:40.606Z,4.63
2019-05-06T03:37:54.163Z,4.47
2019-05-06T03:40:23.125Z,4.60
2019-05-06T03:42:53.903Z,5.00
2019-05-06T03:45:42.679Z,5.10
2019-05-06T03:48:13.566Z,4.90
2019-05-06T03:50:44.007Z,5.87
2019-05-06T03:53:14.067Z,4.60
2019-05-06T03:55:43.789Z,6.57
2019-05-06T03:58:13.527Z,4.53
2019-05-06T04:00:43.803Z,4.90
2019-05-06T04:03:14.012Z,5.07
2019-05-06T04:05:43.775Z,4.63
2019-05-06T04:08:12.765Z,5.43
2019-05-06T04:10:43.499Z,4.90
2019-05-06T04:13:13.466Z,5.33
2019-05-06T04:16:03.764Z,5.23
2019-05-06T04:18:36.214Z,5.47
2019-05-06T04:21:08.916Z,5.67
2019-05-06T04:23:53.672Z,5.17
2019-05-06T04:26:35.941Z,5.10
2019-05-06T04:29:04.299Z,5.23
2019-05-06T04:31:33.699Z,5.17
2019-05-06T04:34:13.946Z,5.00
2019-05-06T04:36:33.634Z,4.90
2019-05-06T04:39:04.111Z,5.00
2019-05-06T04:41:34.227Z,5.17
2019-05-06T04:44:02.935Z,6.20
2019-05-06T04:46:35.178Z,4.70
2019-05-06T04:49:04.136Z,5.00
2019-05-06T04:51:36.884Z,4.73
2019-05-06T04:54:04.564Z,4.73
2019-05-06T04:56:33.482Z,4.80
2019-05-06T04:59:05.759Z,4.73
2019-05-06T05:01:34.156Z,5.60
2019-05-06T05:04:03.469Z,5.17
2019-05-06T05:06:33.015Z,4.80
2019-05-06T05:09:02.789Z,5.10
2019-05-06T05:11:33.479Z,5.07
2019-05-06T05:14:06.489Z,5.13
2019-05-06T05:16:39.522Z,4.37
2019-05-06T05:19:12.373Z,4.70
2019-05-06T05:21:42.720Z,6.80
2019-05-06T05:24:11.997Z,5.47
2019-05-06T05:26:45.052Z,5.63
2019-05-06T05:29:12.320Z,5.20
2019-05-06T05:31:40.739Z,5.40
2019-05-06T05:34:09.062Z,5.53
2019-05-06T05:36:37.367Z,5.70
2019-05-06T05:39:07.062Z,5.73
2019-05-06T05:41:35.359Z,5.30
2019-05-06T05:44:14.425Z,4.57
2019-05-06T05:46:43.884Z,5.03
2019-05-06T05:49:13.978Z,4.73
2019-05-06T05:51:42.640Z,5.30
2019-05-06T05:54:12.459Z,4.57
2019-05-06T05:56:43.002Z,5.00
2019-05-06T05:59:12.271Z,5.40
2019-05-06T06:01:43.459Z,5.70
2019-05-06T06:04:13.022Z,5.43
2019-05-06T06:06:42.348Z,5.57
2019-05-06T06:09:12.588Z,5.77
2019-05-06T06:11:42.301Z,5.63
2019-05-06T06:14:28.836Z,5.90
2019-05-06T06:17:13.809Z,5.97
2019-05-06T06:19:46.442Z,6.77
2019-05-06T06:22:16.415Z,6.33
2019-05-06T06:24:44.709Z,6.87
2019-05-06T06:27:13.216Z,6.20
2019-05-06T06:29:41.837Z,5.93
2019-05-06T06:32:20.356Z,6.10
2019-05-06T06:35:07.365Z,6.70
2019-05-06T06:37:36.401Z,6.20
2019-05-06T06:40:07.039Z,6.47
2019-05-06T06:42:35.342Z,5.10
2019-05-06T06:45:03.907Z,6.13
2019-05-06T06:47:32.184Z,6.03
2019-05-06T06:50:02.630Z,5.13
2019-05-06T06:52:32.400Z,6.20
2019-05-06T06:55:02.345Z,6.00
2019-05-06T06:57:34.353Z,5.90
2019-05-06T07:00:04.224Z,5.27
2019-05-06T07:02:49.710Z,5.47
2019-05-06T07:05:28.124Z,6.33
2019-05-06T07:07:53.220Z,5.10
2019-05-06T07:10:40.086Z,6.13
2019-05-06T07:13:08.554Z,5.30
2019-05-06T07:15:36.884Z,5.43
2019-05-06T07:18:05.178Z,5.40
2019-05-06T07:20:35.152Z,5.60
2019-05-06T07:23:05.077Z,5.50
2019-05-06T07:25:33.686Z,5.50
2019-05-06T07:28:02.997Z,5.03
2019-05-06T07:30:33.325Z,5.53
2019-05-06T07:33:03.633Z,5.70
2019-05-06T07:35:40.447Z,5.63
2019-05-06T07:38:02.361Z,5.53
2019-05-06T07:40:32.628Z,6.07
2019-05-06T07:43:02.431Z,5.80
2019-05-06T07:45:38.205Z,5.80
2019-05-06T07:48:08.232Z,6.30
2019-05-06T07:50:36.569Z,5.63
2019-05-06T07:53:08.414Z,5.60
2019-05-06T07:55:37.033Z,5.43
2019-05-06T07:58:05.418Z,5.43
2019-05-06T08:00:34.454Z,5.50
2019-05-06T08:03:02.843Z,5.90
2019-05-06T08:05:32.440Z,5.47
2019-05-06T08:08:03.378Z,6.00
2019-05-06T08:10:32.937Z,6.33
2019-05-06T08:13:02.689Z,5.47
2019-05-06T08:15:32.569Z,5.93
2019-05-06T08:18:03.092Z,6.07
2019-05-06T08:20:36.641Z,6.30
2019-05-06T08:23:19.527Z,6.17
2019-05-06T08:25:49.512Z,5.60
2019-05-06T08:28:17.722Z,5.77
2019-05-06T08:30:46.054Z,5.20
2019-05-06T08:33:14.376Z,4.93
2019-05-06T08:35:42.737Z,5.27
2019-05-06T08:38:12.180Z,5.17
2019-05-06T08:40:42.867Z,8.00
2019-05-06T08:43:12.920Z,8.40
2019-05-06T08:45:42.069Z,4.80
2019-05-06T08:48:12.809Z,4.03
2019-05-06T08:50:45.375Z,4.43
2019-05-06T08:53:33.649Z,4.37
2019-05-06T08:56:03.529Z,4.53
2019-05-06T08:58:52.592Z,4.10
2019-05-06T09:01:35.535Z,4.23
2019-05-06T09:04:11.898Z,4.90
2019-05-06T09:06:35.247Z,4.30
2019-05-06T09:09:05.218Z,4.47
2019-05-06T09:11:33.613Z,4.40
2019-05-06T09:14:03.358Z,4.57
2019-05-06T09:16:33.054Z,4.10
2019-05-06T09:19:04.346Z,4.80
2019-05-06T09:21:33.491Z,4.77
2019-05-06T09:24:02.362Z,4.20
2019-05-06T09:26:32.623Z,3.87
2019-05-06T09:29:08.201Z,4.00
2019-05-06T09:31:46.638Z,3.87
2019-05-06T09:34:23.347Z,4.33
2019-05-06T09:37:14.080Z,5.63
2019-05-06T09:40:09.190Z,5.10
2019-05-06T09:42:38.454Z,17.57
2019-05-06T09:45:16.315Z,8.90
2019-05-06T09:47:46.553Z,4.60
2019-05-06T09:50:16.661Z,4.50
2019-05-06T09:52:52.764Z,4.40
2019-05-06T09:55:39.103Z,4.63
2019-05-06T09:58:09.318Z,4.87
2019-05-06T10:00:42.894Z,4.40
2019-05-06T10:03:11.515Z,4.67
2019-05-06T10:05:39.816Z,4.10
2019-05-06T10:08:08.130Z,4.03
2019-05-06T10:10:36.449Z,4.40
2019-05-06T10:13:04.757Z,4.00
2019-05-06T10:15:33.097Z,3.40
2019-05-06T10:18:07.398Z,4.17
2019-05-06T10:20:39.645Z,3.50
2019-05-06T10:23:08.145Z,3.50
2019-05-06T10:25:37.079Z,3.37
2019-05-06T10:28:07.414Z,2.77
2019-05-06T10:30:35.785Z,3.50
2019-05-06T10:33:05.705Z,3.33
2019-05-06T10:35:34.222Z,2.50
2019-05-06T10:38:04.067Z,3.10
2019-05-06T10:41:00.078Z,2.77
2019-05-06T10:43:35.825Z,3.20
2019-05-06T10:46:04.250Z,2.70
2019-05-06T10:48:32.570Z,2.67
2019-05-06T10:51:03.517Z,3.10
2019-05-06T10:53:32.997Z,2.63
2019-05-06T10:56:03.112Z,2.83
2019-05-06T10:58:32.659Z,2.40
2019-05-06T11:01:08.891Z,2.20
2019-05-06T11:03:38.136Z,2.17
2019-05-06T11:06:06.714Z,2.17
2019-05-06T11:08:35.231Z,2.80
2019-05-06T11:11:14.838Z,2.57
2019-05-06T11:13:33.768Z,2.90
2019-05-06T11:16:03.349Z,2.27
2019-05-06T11:18:33.451Z,1.90
2019-05-06T11:21:03.538Z,2.03
2019-05-06T11:23:33.810Z,2.20
2019-05-06T11:26:03.084Z,2.17
2019-05-06T11:28:42.838Z,2.17
2019-05-06T11:31:29.247Z,2.33
2019-05-06T11:34:02.255Z,1.90
2019-05-06T11:36:48.162Z,2.10
2019-05-06T11:39:16.581Z,1.97
2019-05-06T11:42:01.732Z,1.97
2019-05-06T11:44:14.995Z,2.07
2019-05-06T11:46:44.309Z,2.13
2019-05-06T11:49:12.715Z,2.30
2019-05-06T11:51:43.277Z,2.30
2019-05-06T11:54:19.381Z,2.43
2019-05-06T11:56:51.310Z,2.53
2019-05-06T11:59:15.252Z,2.40
2019-05-06T12:01:48.357Z,2.17
2019-05-06T12:04:17.333Z,2.13
2019-05-06T12:06:45.955Z,2.30
2019-05-06T12:09:17.111Z,2.33
2019-05-06T12:11:44.653Z,2.30
2019-05-06T12:14:13.248Z,2.30
2019-05-06T12:16:41.755Z,2.33
2019-05-06T12:19:10.302Z,3.40
2019-05-06T12:21:38.714Z,5.40
2019-05-06T12:24:07.363Z,2.20
2019-05-06T12:26:35.809Z,2.27
2019-05-06T12:29:04.384Z,2.33
2019-05-06T12:31:33.036Z,2.37
2019-05-06T12:34:02.714Z,2.40
2019-05-06T12:36:32.644Z,2.40
2019-05-06T12:39:17.692Z,2.37
2019-05-06T12:42:04.750Z,2.50
2019-05-06T12:44:34.797Z,2.40
2019-05-06T12:47:04.869Z,2.20
2019-05-06T12:49:33.407Z,2.27
2019-05-06T12:52:01.877Z,2.43
2019-05-06T12:54:33.276Z,2.10
2019-05-06T12:57:03.025Z,2.50
2019-05-06T12:59:30.574Z,2.40
2019-05-06T13:01:58.887Z,2.33
2019-05-06T13:04:46.118Z,2.67
2019-05-06T13:06:57.194Z,2.33
2019-05-06T13:09:25.474Z,2.57
2019-05-06T13:11:53.740Z,2.47
2019-05-06T13:14:22.577Z,2.80
2019-05-06T13:16:54.175Z,2.70
2019-05-06T13:19:23.168Z,2.77
2019-05-06T13:21:51.440Z,2.90
2019-05-06T13:24:19.729Z,2.47
2019-05-06T13:26:48.038Z,2.60
2019-05-06T13:29:24.302Z,3.60
2019-05-06T13:31:53.133Z,3.33
2019-05-06T13:34:23.462Z,3.10
2019-05-06T13:36:53.367Z,3.10
2019-05-06T13:39:23.710Z,3.33
2019-05-06T13:41:52.879Z,2.90
2019-05-06T13:44:22.804Z,2.97
2019-05-06T13:46:53.308Z,3.23
2019-05-06T13:49:29.560Z,2.90
2019-05-06T13:52:12.409Z,3.10
2019-05-06T13:54:42.180Z,3.10
2019-05-06T13:57:12.500Z,3.40
2019-05-06T13:59:40.383Z,3.33
2019-05-06T14:02:16.190Z,3.07
2019-05-06T14:04:44.270Z,2.97
2019-05-06T14:07:13.191Z,3.03
2019-05-06T14:09:43.662Z,3.63
2019-05-06T14:12:11.800Z,3.40
2019-05-06T14:14:40.095Z,3.10
2019-05-06T14:17:08.455Z,3.47
2019-05-06T14:19:36.777Z,3.07
2019-05-06T14:22:05.172Z,3.00
2019-05-06T14:24:34.370Z,4.23
2019-05-06T14:27:04.353Z,3.20
2019-05-06T14:29:36.181Z,3.40
2019-05-06T14:32:27.523Z,2.97
2019-05-06T14:34:55.750Z,3.00
2019-05-06T14:37:24.089Z,3.23
2019-05-06T14:39:59.131Z,2.70
2019-05-06T14:42:24.112Z,2.80
2019-05-06T14:44:52.402Z,3.00
2019-05-06T14:47:23.264Z,2.80
2019-05-06T14:49:52.991Z,2.90
2019-05-06T14:52:22.586Z,3.40
2019-05-06T14:54:53.403Z,3.10
2019-05-06T14:57:23.186Z,3.17
2019-05-06T14:59:55.188Z,3.60
2019-05-06T15:02:26.002Z,3.40
2019-05-06T15:04:53.635Z,3.57
2019-05-06T15:07:22.170Z,3.20
2019-05-06T15:10:02.573Z,3.23
2019-05-06T15:12:22.695Z,2.93
2019-05-06T15:14:52.561Z,3.60
2019-05-06T15:17:20.110Z,3.10
2019-05-06T15:19:48.349Z,3.70
2019-05-06T15:22:16.614Z,3.30
2019-05-06T15:24:44.870Z,3.00
2019-05-06T15:27:13.193Z,3.20
2019-05-06T15:29:43.154Z,3.10
2019-05-06T15:32:13.166Z,3.27
2019-05-06T15:34:52.726Z,3.07
2019-05-06T15:37:36.926Z,3.30
2019-05-06T15:40:06.916Z,3.20
2019-05-06T15:42:35.214Z,2.97
2019-05-06T15:45:05.334Z,3.27
2019-05-06T15:47:34.539Z,3.33
2019-05-06T15:50:03.275Z,3.70
2019-05-06T15:52:32.473Z,3.10
2019-05-06T15:55:03.191Z,3.43
2019-05-06T15:57:32.800Z,3.50
2019-05-06T16:00:02.601Z,3.13
2019-05-06T16:02:31.024Z,3.17
2019-05-06T16:05:00.059Z,3.20
2019-05-06T16:07:34.230Z,3.07
2019-05-06T16:10:02.529Z,3.20
2019-05-06T16:12:31.057Z,10.37
2019-05-06T16:14:59.324Z,3.10
2019-05-06T16:17:27.632Z,3.20
2019-05-06T16:19:55.864Z,2.87
2019-05-06T16:22:24.139Z,3.13
2019-05-06T16:24:57.154Z,3.33
2019-05-06T16:27:25.443Z,3.20
2019-05-06T16:29:53.750Z,3.10
2019-05-06T16:32:22.098Z,3.07
2019-05-06T16:34:52.312Z,3.20
2019-05-06T16:37:22.214Z,3.27
2019-05-06T16:39:54.185Z,3.20
2019-05-06T16:42:22.462Z,3.10
2019-05-06T16:44:52.238Z,3.73
2019-05-06T16:47:39.743Z,3.67
2019-05-06T16:50:09.541Z,3.10
2019-05-06T16:52:37.861Z,3.33
2019-05-06T16:55:06.922Z,3.30
2019-05-06T16:57:35.222Z,3.60
2019-05-06T17:00:05.512Z,3.40
2019-05-06T17:02:36.095Z,3.70
2019-05-06T17:05:22.514Z,3.33
2019-05-06T17:07:52.594Z,3.60
2019-05-06T17:10:22.774Z,3.43
2019-05-06T17:12:53.423Z,3.23
2019-05-06T17:15:23.051Z,3.53
2019-05-06T17:17:53.138Z,3.60
2019-05-06T17:20:22.743Z,3.60
2019-05-06T17:22:53.233Z,3.70
2019-05-06T17:25:22.447Z,3.47
2019-05-06T17:27:52.664Z,3.30
2019-05-06T17:30:25.398Z,3.77
2019-05-06T17:33:02.213Z,3.40
2019-05-06T17:35:32.410Z,3.60
2019-05-06T17:38:04.791Z,3.87
2019-05-06T17:40:33.257Z,3.43
2019-05-06T17:43:02.551Z,3.47
2019-05-06T17:45:39.971Z,3.73
2019-05-06T17:48:16.015Z,3.80
2019-05-06T17:50:46.779Z,4.13
2019-05-06T17:53:15.282Z,3.97
2019-05-06T17:55:43.663Z,3.27
2019-05-06T17:58:13.067Z,3.77
2019-05-06T18:00:43.000Z,3.33
2019-05-06T18:03:11.672Z,3.43
2019-05-06T18:05:42.036Z,3.20
2019-05-06T18:08:12.613Z,3.67
2019-05-06T18:10:40.062Z,4.40
2019-05-06T18:13:08.292Z,3.63
2019-05-06T18:15:36.622Z,3.40
2019-05-06T18:18:04.866Z,3.53
2019-05-06T18:20:33.677Z,3.30
2019-05-06T18:23:02.144Z,4.10
2019-05-06T18:25:32.476Z,4.20
2019-05-06T18:28:00.345Z,4.13
2019-05-06T18:30:33.406Z,5.00
2019-05-06T18:32:59.741Z,4.17
2019-05-06T18:35:27.974Z,3.80
2019-05-06T18:37:56.303Z,3.97
2019-05-06T18:40:24.532Z,3.30
2019-05-06T18:42:52.788Z,3.50
2019-05-06T18:45:22.060Z,3.53
2019-05-06T18:47:53.031Z,3.77
2019-05-06T18:50:22.018Z,3.60
2019-05-06T18:52:53.964Z,4.17
2019-05-06T18:55:22.530Z,3.97
2019-05-06T18:57:52.835Z,4.17
2019-05-06T19:00:22.507Z,4.20
2019-05-06T19:02:52.264Z,3.87
2019-05-06T19:05:28.899Z,4.50
2019-05-06T19:07:57.343Z,4.20
2019-05-06T19:10:28.141Z,4.30
2019-05-06T19:12:56.552Z,4.53
2019-05-06T19:15:24.833Z,4.80
2019-05-06T19:17:54.925Z,4.20
2019-05-06T19:20:24.444Z,4.23
2019-05-06T19:22:53.583Z,4.97
2019-05-06T19:25:22.703Z,4.23
2019-05-06T19:27:53.122Z,4.73
2019-05-06T19:30:22.487Z,4.17
2019-05-06T19:32:52.719Z,5.10
2019-05-06T19:35:21.206Z,5.13
2019-05-06T19:37:49.704Z,5.83
2019-05-06T19:40:18.137Z,5.83
2019-05-06T19:42:49.903Z,5.90
2019-05-06T19:45:16.520Z,5.03
2019-05-06T19:47:44.739Z,5.77
2019-05-06T19:50:14.551Z,5.63
2019-05-06T19:52:43.336Z,6.47
2019-05-06T19:55:12.436Z,6.60
2019-05-06T19:57:42.954Z,6.00
2019-05-06T20:00:10.943Z,5.73
2019-05-06T20:02:39.363Z,5.40
2019-05-06T20:05:09.358Z,6.93
2019-05-06T20:07:39.480Z,7.70
2019-05-06T20:10:15.502Z,10.50
2019-05-06T20:12:58.361Z,10.77
2019-05-06T20:15:33.445Z,10.77
2019-05-06T20:18:03.095Z,10.50
2019-05-06T20:20:34.606Z,8.27
2019-05-06T20:23:02.674Z,7.50
2019-05-06T20:25:31.150Z,6.10
2019-05-06T20:28:06.928Z,6.43
2019-05-06T20:30:35.197Z,5.80
2019-05-06T20:33:03.545Z,5.03
2019-05-06T20:35:32.540Z,5.33
2019-05-06T20:38:02.812Z,5.50
2019-05-06T20:40:32.700Z,5.57
2019-05-06T20:43:14.211Z,5.33
2019-05-06T20:45:35.078Z,5.30
2019-05-06T20:48:03.059Z,5.23
2019-05-06T20:50:32.143Z,6.10
2019-05-06T20:53:00.773Z,5.37
2019-05-06T20:55:32.621Z,6.10
2019-05-06T20:57:59.797Z,5.80
2019-05-06T21:00:28.259Z,5.90
2019-05-06T21:02:56.696Z,6.33
2019-05-06T21:05:25.390Z,6.20
2019-05-06T21:07:53.839Z,8.20
2019-05-06T21:10:22.511Z,8.23
2019-05-06T21:12:53.035Z,7.77
2019-05-06T21:15:22.907Z,6.50
2019-05-06T21:17:51.889Z,6.43
2019-05-06T21:20:21.979Z,6.50
2019-05-06T21:22:52.642Z,6.40
2019-05-06T21:25:22.633Z,5.93
2019-05-06T21:27:53.231Z,5.93
2019-05-06T21:30:21.801Z,6.73
2019-05-06T21:32:52.107Z,6.77
2019-05-06T21:35:22.246Z,6.77
2019-05-06T21:37:52.798Z,6.23
2019-05-06T21:40:21.050Z,6.37
2019-05-06T21:42:49.681Z,7.47
2019-05-06T21:45:18.145Z,9.90
2019-05-06T21:47:46.711Z,8.73
2019-05-06T21:50:15.549Z,8.37
2019-05-06T21:52:44.309Z,8.30
2019-05-06T21:55:13.480Z,8.63
2019-05-06T21:57:42.574Z,8.43
2019-05-06T22:00:16.650Z,7.73
2019-05-06T22:02:43.330Z,7.83
2019-05-06T22:05:13.352Z,7.50
2019-05-06T22:07:43.403Z,7.53
2019-05-06T22:10:11.989Z,8.30
2019-05-06T22:12:40.358Z,7.30
2019-05-06T22:15:08.610Z,7.50
2019-05-06T22:17:36.970Z,8.37
2019-05-06T22:20:05.255Z,8.07
2019-05-06T22:22:38.124Z,8.97
2019-05-06T22:25:06.662Z,8.63
2019-05-06T22:27:35.000Z,8.40
2019-05-06T22:30:04.969Z,8.33
2019-05-06T22:32:34.938Z,7.43
2019-05-06T22:35:04.740Z,7.80
2019-05-06T22:37:33.232Z,7.30
2019-05-06T22:40:02.228Z,7.93
2019-05-06T22:42:32.309Z,8.07
2019-05-06T22:45:01.983Z,8.93
2019-05-06T22:47:32.384Z,7.23
2019-05-06T22:50:02.152Z,7.70
2019-05-06T22:52:32.384Z,8.87
2019-05-06T22:55:03.778Z,8.97
2019-05-06T22:57:30.200Z,8.27
2019-05-06T22:59:58.451Z,8.17
2019-05-06T23:02:34.370Z,8.30
2019-05-06T23:05:04.533Z,8.73
2019-05-06T23:07:34.138Z,8.83
2019-05-06T23:10:02.917Z,8.83
2019-05-06T23:12:32.538Z,8.90
2019-05-06T23:15:02.663Z,9.00
2019-05-06T23:17:34.246Z,7.73
2019-05-06T23:20:02.336Z,7.47
2019-05-06T23:22:32.022Z,8.30
2019-05-06T23:25:02.234Z,7.30
2019-05-06T23:27:30.250Z,7.67
2019-05-06T23:29:58.580Z,8.07
2019-05-06T23:32:26.876Z,8.60
2019-05-06T23:34:55.200Z,7.97
2019-05-06T23:37:23.446Z,7.67
2019-05-06T23:40:12.658Z,8.77
2019-05-06T23:42:59.068Z,8.40
2019-05-06T23:45:45.601Z,7.67
2019-05-06T23:48:32.169Z,8.37
2019-05-06T23:51:18.337Z,8.67
2019-05-06T23:54:04.529Z,8.33
2019-05-06T23:56:44.668Z,7.23
2019-05-06T23:59:14.167Z,8.03
